Time;durP1;ratioP1;P1;durP2;ratioP2;P2;SDS_P1;SDS_P2;PMS_P1;PMS_P2;Temp;Humidity;BMP_temperature;BMP_pressure;BME280_temperature;BME280_humidity;BME280_pressure;Samples;Min_cycle;Max_cycle;Signal;HPM_P1;HPM_P2
2021/09/30 00:01:08;;;;;;;0.97;0.53;;;;;;;;;;5122286;28;20204;-64
2021/09/30 00:03:36;;;;;;;1.57;0.60;;;;;;;;;;5122386;28;20250;-64
2021/09/30 00:06:04;;;;;;;2.03;0.73;;;;;;;;;;5121804;28;20597;-64
2021/09/30 00:08:34;;;;;;;1.33;0.60;;;;;;;;;;5121931;28;20602;-64
2021/09/30 00:11:07;;;;;;;1.23;0.60;;;;;;;;;;5121979;27;20280;-64
2021/09/30 00:13:44;;;;;;;0.50;0.50;;;;;;;;;;5121938;28;20230;-64
2021/09/30 00:16:38;;;;;;;1.63;0.57;;;;;;;;;;5121768;28;20206;-64
2021/09/30 00:33:02;;;;;;;1.53;0.70;;;;;;;;;;5121486;28;20224;-63
2021/09/30 00:35:53;;;;;;;1.53;0.80;;;;;;;;;;5121151;28;20234;-64
2021/09/30 00:41:22;;;;;;;2.07;0.67;;;;;;;;;;5121616;28;20211;-64
2021/09/30 00:46:51;;;;;;;1.20;0.50;;;;;;;;;;5121215;28;20568;-64
2021/09/30 00:49:28;;;;;;;0.97;0.43;;;;;;;;;;5120810;27;20701;-64
2021/09/30 00:52:01;;;;;;;1.20;0.70;;;;;;;;;;5121025;28;20204;-64
2021/09/30 01:45:48;;;;;;;1.20;0.70;;;;;;;;;;5140880;27;20226;-62
2021/09/30 02:19:30;;;;;;;0.83;0.70;;;;;;;;;;5046120;28;20206;-63
2021/09/30 02:58:14;;;;;;;3.33;0.80;;;;;;;;;;5115293;28;20207;-64
2021/09/30 03:00:42;;;;;;;0.50;0.50;;;;;;;;;;5115039;28;20211;-64
2021/09/30 03:03:13;;;;;;;2.90;0.93;;;;;;;;;;5114961;28;20288;-64
2021/09/30 03:05:41;;;;;;;4.27;0.97;;;;;;;;;;5114694;28;20315;-64
2021/09/30 03:08:09;;;;;;;6.40;1.20;;;;;;;;;;5114952;28;20223;-64
2021/09/30 03:10:39;;;;;;;5.10;1.10;;;;;;;;;;5114943;28;20209;-64
2021/09/30 03:13:08;;;;;;;1.90;0.70;;;;;;;;;;5114948;28;20205;-64
2021/09/30 03:15:41;;;;;;;0.83;0.53;;;;;;;;;;5114836;28;20289;-64
2021/09/30 03:18:26;;;;;;;2.57;0.87;;;;;;;;;;5114689;28;20212;-64
2021/09/30 03:22:03;;;;;;;0.97;0.53;;;;;;;;;;5114449;28;20205;-64
2021/09/30 03:23:53;;;;;;;0.60;0.60;;;;;;;;;;5114537;28;20235;-64
2021/09/30 03:26:24;;;;;;;1.20;0.70;;;;;;;;;;5114093;28;20212;-64
2021/09/30 03:28:53;;;;;;;4.67;0.90;;;;;;;;;;5114245;28;20595;-64
2021/09/30 03:31:21;;;;;;;0.70;0.63;;;;;;;;;;5114580;28;20201;-64
2021/09/30 03:33:49;;;;;;;2.97;1.23;;;;;;;;;;5114561;28;20224;-64
2021/09/30 03:36:19;;;;;;;2.30;0.90;;;;;;;;;;5114642;28;20204;-64
2021/09/30 03:38:47;;;;;;;4.17;1.00;;;;;;;;;;5114661;28;20203;-64
2021/09/30 03:41:15;;;;;;;6.40;1.23;;;;;;;;;;5103437;28;20215;-64
2021/09/30 03:43:43;;;;;;;1.30;0.70;;;;;;;;;;5100842;28;20219;-64
2021/09/30 03:46:11;;;;;;;2.10;0.80;;;;;;;;;;5100467;28;20209;-64
2021/09/30 03:48:39;;;;;;;2.10;0.83;;;;;;;;;;5100181;28;20206;-64
2021/09/30 03:51:12;;;;;;;4.43;0.80;;;;;;;;;;5100550;28;20201;-64
2021/09/30 03:53:52;;;;;;;0.87;0.53;;;;;;;;;;5100303;28;20209;-64
2021/09/30 03:56:50;;;;;;;1.37;0.80;;;;;;;;;;5100699;28;20207;-64
2021/09/30 03:59:20;;;;;;;0.90;0.67;;;;;;;;;;5100613;28;20202;-64
2021/09/30 04:01:54;;;;;;;1.40;0.73;;;;;;;;;;5100401;28;20201;-64
2021/09/30 04:04:25;;;;;;;2.60;0.80;;;;;;;;;;5099843;28;20228;-63
2021/09/30 04:06:54;;;;;;;2.70;0.87;;;;;;;;;;5100613;28;20211;-64
2021/09/30 04:09:26;;;;;;;2.00;0.80;;;;;;;;;;5100418;28;20225;-63
2021/09/30 04:11:55;;;;;;;2.03;0.60;;;;;;;;;;5087145;28;20201;-63
2021/09/30 04:14:23;;;;;;;2.10;0.90;;;;;;;;;;5099794;28;20739;-63
2021/09/30 04:16:51;;;;;;;1.07;0.70;;;;;;;;;;5099932;28;20205;-63
2021/09/30 04:19:20;;;;;;;5.10;0.87;;;;;;;;;;5099863;28;20202;-64
2021/09/30 04:21:49;;;;;;;4.23;1.17;;;;;;;;;;5091018;28;20205;-64
2021/09/30 04:24:17;;;;;;;2.63;0.77;;;;;;;;;;5099747;28;20220;-65
2021/09/30 04:26:47;;;;;;;1.60;0.60;;;;;;;;;;5099982;28;20214;-65
2021/09/30 04:29:15;;;;;;;2.57;0.77;;;;;;;;;;5086752;28;20236;-64
2021/09/30 04:31:44;;;;;;;2.30;0.90;;;;;;;;;;5100690;28;20198;-65
2021/09/30 04:34:12;;;;;;;1.50;0.77;;;;;;;;;;5098185;28;20214;-65
2021/09/30 04:36:40;;;;;;;2.57;1.07;;;;;;;;;;5101870;28;20641;-65
2021/09/30 04:39:08;;;;;;;4.33;1.00;;;;;;;;;;5098686;28;20202;-65
2021/09/30 04:41:36;;;;;;;2.93;0.80;;;;;;;;;;5092419;28;20202;-65
2021/09/30 04:44:06;;;;;;;3.93;1.43;;;;;;;;;;5099437;28;20239;-65
2021/09/30 04:46:34;;;;;;;1.63;0.87;;;;;;;;;;5098955;28;20675;-65
2021/09/30 04:49:02;;;;;;;4.73;1.07;;;;;;;;;;5098507;28;20245;-65
2021/09/30 04:51:30;;;;;;;1.87;0.80;;;;;;;;;;5098356;28;20568;-65
2021/09/30 04:53:58;;;;;;;1.53;0.70;;;;;;;;;;5099054;28;20236;-64
2021/09/30 04:56:27;;;;;;;1.30;0.80;;;;;;;;;;5098947;28;20206;-65
2021/09/30 04:58:55;;;;;;;3.57;1.00;;;;;;;;;;5098731;28;20205;-65
2021/09/30 05:01:25;;;;;;;4.03;1.30;;;;;;;;;;5101492;28;20211;-65
2021/09/30 05:03:53;;;;;;;1.57;0.90;;;;;;;;;;5096088;28;20225;-63
2021/09/30 05:06:21;;;;;;;1.83;1.37;;;;;;;;;;5089280;28;20202;-65
2021/09/30 05:08:50;;;;;;;5.40;1.13;;;;;;;;;;5093203;28;20205;-63
2021/09/30 05:11:18;;;;;;;1.53;0.97;;;;;;;;;;5103306;28;20213;-66
2021/09/30 05:13:46;;;;;;;1.13;0.80;;;;;;;;;;5108969;28;20216;-65
2021/09/30 05:16:15;;;;;;;1.97;1.03;;;;;;;;;;5101973;28;20572;-66
2021/09/30 05:18:47;;;;;;;2.37;1.27;;;;;;;;;;5098204;28;20209;-65
2021/09/30 05:21:16;;;;;;;6.00;1.57;;;;;;;;;;5098494;28;20198;-65
2021/09/30 05:23:44;;;;;;;1.53;1.43;;;;;;;;;;5094682;28;20230;-65
2021/09/30 05:26:12;;;;;;;1.10;1.00;;;;;;;;;;5103314;28;20214;-65
2021/09/30 05:28:40;;;;;;;2.17;0.97;;;;;;;;;;5110680;28;20267;-65
2021/09/30 05:31:08;;;;;;;2.30;0.90;;;;;;;;;;5099029;28;20221;-65
2021/09/30 05:33:36;;;;;;;6.97;1.10;;;;;;;;;;5098240;28;20201;-64
2021/09/30 05:36:06;;;;;;;1.77;1.20;;;;;;;;;;5097677;28;20216;-64
2021/09/30 05:38:34;;;;;;;2.60;1.30;;;;;;;;;;5111598;28;20207;-64
2021/09/30 05:41:04;;;;;;;1.77;1.00;;;;;;;;;;5118427;28;20209;-65
2021/09/30 05:43:35;;;;;;;4.87;1.70;;;;;;;;;;5118179;28;20211;-62
2021/09/30 05:46:03;;;;;;;3.27;1.60;;;;;;;;;;5118388;28;20662;-63
2021/09/30 05:48:31;;;;;;;5.73;0.93;;;;;;;;;;5110296;27;20193;-64
2021/09/30 05:51:00;;;;;;;1.97;0.90;;;;;;;;;;5105169;28;20227;-64
2021/09/30 05:53:30;;;;;;;2.30;1.17;;;;;;;;;;5105757;28;20206;-64
2021/09/30 05:55:58;;;;;;;4.23;2.23;;;;;;;;;;5104834;28;20202;-64
2021/09/30 05:58:26;;;;;;;2.63;1.33;;;;;;;;;;5104077;28;20193;-64
2021/09/30 06:01:03;;;;;;;3.33;1.77;;;;;;;;;;5104699;28;20197;-64
2021/09/30 06:12:12;;;;;;;3.70;1.07;;;;;;;;;;5091242;28;20197;-64
2021/09/30 06:14:42;;;;;;;4.53;1.37;;;;;;;;;;5105890;28;20217;-64
2021/09/30 06:17:10;;;;;;;3.77;1.13;;;;;;;;;;5118458;28;20216;-63
2021/09/30 06:19:39;;;;;;;1.53;1.13;;;;;;;;;;5117738;28;20644;-64
2021/09/30 06:22:08;;;;;;;4.50;1.10;;;;;;;;;;5115311;28;20208;-64
2021/09/30 06:24:38;;;;;;;2.67;0.90;;;;;;;;;;5094533;28;20225;-63
2021/09/30 06:27:27;;;;;;;1.87;1.70;;;;;;;;;;5097318;28;20270;-63
2021/09/30 06:29:55;;;;;;;1.97;1.10;;;;;;;;;;5092078;28;20769;-63
2021/09/30 06:32:23;;;;;;;3.10;1.20;;;;;;;;;;5096980;28;20214;-63
2021/09/30 06:34:51;;;;;;;7.17;1.47;;;;;;;;;;5096795;28;20229;-63
2021/09/30 06:37:20;;;;;;;3.27;1.20;;;;;;;;;;5097611;28;20236;-62
2021/09/30 06:39:50;;;;;;;3.50;1.30;;;;;;;;;;5096964;28;20285;-62
2021/09/30 06:42:18;;;;;;;0.87;0.80;;;;;;;;;;5097616;28;20232;-62
2021/09/30 06:44:47;;;;;;;3.93;1.23;;;;;;;;;;5097074;28;20294;-63
2021/09/30 06:47:15;;;;;;;1.93;1.40;;;;;;;;;;5095830;28;20809;-63
2021/09/30 06:49:43;;;;;;;2.60;0.70;;;;;;;;;;5096626;28;20205;-64
2021/09/30 06:52:12;;;;;;;2.40;0.70;;;;;;;;;;5097254;28;20594;-64
2021/09/30 06:54:40;;;;;;;2.27;1.30;;;;;;;;;;5097079;28;20226;-64
2021/09/30 06:57:10;;;;;;;2.43;0.93;;;;;;;;;;5100087;28;20235;-64
2021/09/30 06:59:39;;;;;;;5.57;1.20;;;;;;;;;;5105351;28;20205;-64
2021/09/30 07:02:10;;;;;;;4.77;1.43;;;;;;;;;;5099084;28;20198;-64
2021/09/30 07:04:38;;;;;;;1.70;0.90;;;;;;;;;;5096930;28;20225;-64
2021/09/30 07:07:07;;;;;;;3.83;1.00;;;;;;;;;;5096966;28;20640;-64
2021/09/30 07:09:35;;;;;;;2.03;1.00;;;;;;;;;;5097026;28;20239;-62
2021/09/30 07:12:06;;;;;;;3.20;1.10;;;;;;;;;;5116794;28;20636;-62
2021/09/30 07:14:36;;;;;;;2.20;0.80;;;;;;;;;;5106940;28;20225;-63
2021/09/30 07:17:06;;;;;;;3.83;1.13;;;;;;;;;;5087332;28;20209;-62
2021/09/30 07:19:36;;;;;;;6.43;1.17;;;;;;;;;;5100298;28;20292;-64
2021/09/30 07:22:05;;;;;;;4.30;1.20;;;;;;;;;;5101476;28;20581;-64
2021/09/30 07:24:33;;;;;;;2.50;1.10;;;;;;;;;;5100897;28;20232;-64
2021/09/30 07:27:01;;;;;;;2.83;1.10;;;;;;;;;;5101020;28;20210;-64
2021/09/30 07:29:30;;;;;;;2.37;0.90;;;;;;;;;;5100424;28;20237;-64
2021/09/30 07:31:59;;;;;;;2.23;0.70;;;;;;;;;;5100404;28;20275;-64
2021/09/30 07:34:29;;;;;;;3.93;1.10;;;;;;;;;;5100244;28;20225;-64
2021/09/30 07:37:05;;;;;;;5.73;1.23;;;;;;;;;;5100532;28;20205;-64
2021/09/30 07:39:33;;;;;;;2.77;1.07;;;;;;;;;;5100219;28;20209;-64
2021/09/30 07:42:02;;;;;;;2.20;1.10;;;;;;;;;;5100487;28;20206;-64
2021/09/30 07:44:33;;;;;;;4.60;1.40;;;;;;;;;;5100460;28;20270;-64
2021/09/30 07:47:03;;;;;;;3.00;1.17;;;;;;;;;;5100072;28;20236;-64
2021/09/30 07:49:34;;;;;;;1.50;1.00;;;;;;;;;;5100131;28;20293;-64
2021/09/30 07:52:02;;;;;;;3.10;1.07;;;;;;;;;;5099903;28;20221;-64
2021/09/30 07:54:31;;;;;;;3.43;1.10;;;;;;;;;;5100170;28;20264;-64
2021/09/30 07:56:59;;;;;;;2.57;1.17;;;;;;;;;;5099743;28;20653;-64
2021/09/30 07:59:27;;;;;;;2.13;0.80;;;;;;;;;;5100065;28;20212;-64
2021/09/30 08:01:55;;;;;;;1.07;1.03;;;;;;;;;;5100059;28;20237;-64
2021/09/30 08:04:25;;;;;;;2.03;1.10;;;;;;;;;;5100265;28;20308;-64
2021/09/30 08:06:56;;;;;;;3.43;1.33;;;;;;;;;;5099863;28;20201;-62
2021/09/30 08:09:24;;;;;;;4.10;1.00;;;;;;;;;;5099701;28;20205;-64
2021/09/30 08:11:56;;;;;;;3.60;1.20;;;;;;;;;;5119792;28;20703;-64
2021/09/30 08:14:24;;;;;;;4.63;1.10;;;;;;;;;;5120114;28;20589;-64
2021/09/30 08:16:52;;;;;;;5.10;1.47;;;;;;;;;;5120188;28;20673;-64
2021/09/30 08:19:20;;;;;;;1.97;1.00;;;;;;;;;;5119996;28;20257;-64
2021/09/30 08:21:50;;;;;;;5.00;1.50;;;;;;;;;;5120197;28;20222;-64
2021/09/30 08:24:19;;;;;;;1.77;1.10;;;;;;;;;;5116463;28;20224;-62
2021/09/30 08:26:47;;;;;;;3.80;2.93;;;;;;;;;;5099457;28;20288;-63
2021/09/30 08:29:16;;;;;;;2.33;1.47;;;;;;;;;;5100130;28;20296;-62
2021/09/30 08:31:45;;;;;;;2.20;1.07;;;;;;;;;;5099173;28;20224;-64
2021/09/30 08:34:13;;;;;;;5.93;1.77;;;;;;;;;;5099314;28;20229;-65
2021/09/30 08:36:42;;;;;;;6.17;1.50;;;;;;;;;;5099507;28;20233;-61
2021/09/30 08:39:11;;;;;;;3.67;1.57;;;;;;;;;;5099573;28;20233;-61
2021/09/30 08:41:39;;;;;;;5.07;1.30;;;;;;;;;;5099122;28;20304;-62
2021/09/30 08:44:08;;;;;;;3.07;1.57;;;;;;;;;;5099306;28;20632;-62
2021/09/30 08:46:36;;;;;;;3.23;1.50;;;;;;;;;;5098956;28;20590;-62
2021/09/30 08:49:05;;;;;;;1.30;1.20;;;;;;;;;;5099036;28;20258;-64
2021/09/30 08:51:35;;;;;;;2.43;1.47;;;;;;;;;;5098721;28;20226;-62
2021/09/30 08:54:04;;;;;;;3.97;1.27;;;;;;;;;;5098775;28;20733;-62
2021/09/30 08:56:34;;;;;;;5.60;1.47;;;;;;;;;;5099146;28;20205;-64
2021/09/30 08:59:20;;;;;;;3.30;1.23;;;;;;;;;;5098560;28;20288;-64
2021/09/30 09:02:04;;;;;;;2.43;1.20;;;;;;;;;;5099161;28;20202;-65
2021/09/30 09:04:51;;;;;;;5.10;1.30;;;;;;;;;;5103754;28;20213;-64
2021/09/30 09:07:22;;;;;;;3.60;1.23;;;;;;;;;;5106727;28;20206;-64
2021/09/30 09:09:51;;;;;;;2.30;0.90;;;;;;;;;;5101765;28;20232;-64
2021/09/30 09:12:20;;;;;;;4.03;1.23;;;;;;;;;;5098594;28;20591;-63
2021/09/30 09:14:48;;;;;;;3.17;1.60;;;;;;;;;;5098469;28;20652;-63
2021/09/30 09:17:17;;;;;;;3.53;1.10;;;;;;;;;;5098677;28;20665;-62
2021/09/30 09:19:46;;;;;;;5.93;1.33;;;;;;;;;;5098476;28;20205;-63
2021/09/30 09:22:15;;;;;;;3.40;1.30;;;;;;;;;;5098893;28;20212;-63
2021/09/30 09:24:57;;;;;;;3.53;1.20;;;;;;;;;;5098144;28;20221;-62
2021/09/30 09:27:43;;;;;;;5.17;1.30;;;;;;;;;;5098205;28;20645;-62
2021/09/30 09:30:24;;;;;;;6.90;1.50;;;;;;;;;;5093471;28;20260;-64
2021/09/30 09:32:59;;;;;;;2.23;1.13;;;;;;;;;;5097415;28;20687;-64
2021/09/30 09:35:28;;;;;;;1.97;1.20;;;;;;;;;;5098213;28;20278;-64
2021/09/30 09:38:01;;;;;;;3.27;1.17;;;;;;;;;;5098101;28;20214;-64
2021/09/30 09:40:29;;;;;;;2.60;1.17;;;;;;;;;;5098178;28;20205;-64
2021/09/30 09:42:59;;;;;;;2.00;1.23;;;;;;;;;;5098564;28;20213;-64
2021/09/30 09:45:27;;;;;;;3.87;1.60;;;;;;;;;;5098180;28;20221;-64
2021/09/30 09:47:57;;;;;;;4.93;2.47;;;;;;;;;;5098254;28;20292;-63
2021/09/30 09:50:26;;;;;;;3.27;1.17;;;;;;;;;;5097957;28;20262;-64
2021/09/30 09:52:55;;;;;;;1.73;1.13;;;;;;;;;;5097900;28;20243;-63
2021/09/30 09:55:29;;;;;;;3.57;0.90;;;;;;;;;;5098037;28;20255;-62
2021/09/30 09:57:59;;;;;;;3.33;1.13;;;;;;;;;;5098399;28;20202;-64
2021/09/30 10:00:27;;;;;;;3.23;0.90;;;;;;;;;;5098084;28;20649;-62
2021/09/30 10:02:56;;;;;;;3.00;1.00;;;;;;;;;;5097636;28;20209;-65
2021/09/30 10:05:27;;;;;;;3.47;0.83;;;;;;;;;;5097600;28;20222;-64
2021/09/30 10:07:55;;;;;;;2.67;0.80;;;;;;;;;;5097693;28;20577;-65
2021/09/30 10:10:23;;;;;;;4.30;1.20;;;;;;;;;;5105240;28;20211;-64
2021/09/30 10:12:51;;;;;;;2.47;1.00;;;;;;;;;;5117685;28;20221;-65
2021/09/30 10:15:21;;;;;;;1.97;0.87;;;;;;;;;;5117903;28;20586;-62
2021/09/30 10:17:49;;;;;;;1.33;0.90;;;;;;;;;;5117664;28;20688;-64
2021/09/30 10:20:17;;;;;;;3.63;0.83;;;;;;;;;;5117833;28;20288;-64
2021/09/30 10:22:50;;;;;;;2.87;0.83;;;;;;;;;;5111289;28;20198;-62
2021/09/30 10:25:18;;;;;;;1.40;1.00;;;;;;;;;;5097382;28;20218;-64
2021/09/30 10:27:54;;;;;;;2.40;0.73;;;;;;;;;;5097557;28;20270;-62
2021/09/30 10:30:33;;;;;;;2.30;0.87;;;;;;;;;;5092514;28;20255;-64
2021/09/30 10:33:06;;;;;;;2.43;0.87;;;;;;;;;;5097523;28;20229;-64
2021/09/30 10:35:35;;;;;;;3.43;1.10;;;;;;;;;;5097305;28;20236;-65
2021/09/30 10:38:16;;;;;;;1.03;0.50;;;;;;;;;;5097805;28;20213;-64
2021/09/30 10:41:03;;;;;;;1.43;0.60;;;;;;;;;;5097323;28;20248;-64
2021/09/30 10:43:32;;;;;;;5.67;1.10;;;;;;;;;;5097509;28;20236;-65
2021/09/30 10:46:02;;;;;;;1.27;0.83;;;;;;;;;;5104726;28;20227;-64
2021/09/30 10:48:40;;;;;;;0.90;0.90;;;;;;;;;;5096699;28;20209;-64
2021/09/30 10:51:10;;;;;;;1.37;1.10;;;;;;;;;;5100035;28;20212;-65
2021/09/30 10:53:57;;;;;;;2.20;0.83;;;;;;;;;;5101410;28;20236;-65
2021/09/30 10:56:41;;;;;;;3.57;0.67;;;;;;;;;;5101467;28;20237;-65
2021/09/30 10:59:27;;;;;;;0.87;0.43;;;;;;;;;;5101429;28;20242;-64
2021/09/30 11:02:03;;;;;;;1.00;0.70;;;;;;;;;;5101015;28;20207;-64
2021/09/30 11:04:51;;;;;;;3.17;0.60;;;;;;;;;;5101192;28;20221;-64
2021/09/30 11:07:19;;;;;;;4.47;0.87;;;;;;;;;;5100650;28;20241;-64
2021/09/30 11:10:02;;;;;;;4.17;0.77;;;;;;;;;;5101134;28;20198;-65
2021/09/30 11:12:30;;;;;;;2.00;0.80;;;;;;;;;;5087383;28;20269;-64
2021/09/30 11:14:59;;;;;;;2.30;0.80;;;;;;;;;;5100698;28;20231;-65
2021/09/30 11:17:38;;;;;;;3.00;1.10;;;;;;;;;;5101145;28;20205;-64
2021/09/30 11:20:39;;;;;;;2.33;0.63;;;;;;;;;;5100912;28;20653;-64
2021/09/30 11:23:27;;;;;;;0.83;0.70;;;;;;;;;;5038212;28;20701;-64
2021/09/30 11:26:11;;;;;;;2.67;1.07;;;;;;;;;;5038141;28;20711;-65
2021/09/30 11:28:39;;;;;;;1.57;0.90;;;;;;;;;;5081160;28;20707;-64
2021/09/30 11:31:24;;;;;;;0.87;0.67;;;;;;;;;;5100338;28;20644;-64
2021/09/30 11:33:54;;;;;;;4.60;0.83;;;;;;;;;;5100277;28;20599;-64
2021/09/30 11:36:29;;;;;;;1.10;0.53;;;;;;;;;;5100565;28;21589;-64
2021/09/30 11:38:58;;;;;;;0.80;0.63;;;;;;;;;;5100382;28;20211;-64
2021/09/30 11:41:27;;;;;;;1.53;0.83;;;;;;;;;;5100548;28;20209;-64
2021/09/30 11:43:55;;;;;;;1.73;1.63;;;;;;;;;;5100126;28;20222;-63
2021/09/30 11:46:23;;;;;;;1.50;0.80;;;;;;;;;;5100070;28;20576;-63
2021/09/30 11:48:56;;;;;;;3.50;0.90;;;;;;;;;;5099649;28;20653;-65
2021/09/30 11:51:31;;;;;;;1.57;0.70;;;;;;;;;;5097342;28;20240;-65
2021/09/30 11:53:59;;;;;;;1.50;0.80;;;;;;;;;;5100264;28;20239;-65
2021/09/30 11:56:27;;;;;;;1.47;0.80;;;;;;;;;;5100062;28;20209;-65
2021/09/30 11:58:59;;;;;;;4.37;0.97;;;;;;;;;;5100106;28;20665;-65
2021/09/30 12:01:34;;;;;;;2.47;0.70;;;;;;;;;;5099622;28;20543;-65
2021/09/30 12:04:04;;;;;;;1.17;0.90;;;;;;;;;;5099371;28;20216;-65
2021/09/30 12:06:39;;;;;;;2.17;1.03;;;;;;;;;;5099591;28;20326;-65
2021/09/30 12:09:08;;;;;;;3.40;0.97;;;;;;;;;;5099963;28;20205;-65
2021/09/30 12:11:36;;;;;;;1.70;1.10;;;;;;;;;;5109847;28;20264;-65
2021/09/30 12:14:04;;;;;;;1.83;0.73;;;;;;;;;;5119783;28;20225;-65
2021/09/30 12:16:33;;;;;;;1.03;1.00;;;;;;;;;;5120169;28;20207;-65
2021/09/30 12:19:01;;;;;;;3.20;0.93;;;;;;;;;;5119535;28;20580;-65
2021/09/30 12:21:38;;;;;;;3.90;0.83;;;;;;;;;;5120336;28;20247;-65
2021/09/30 12:24:06;;;;;;;1.30;0.60;;;;;;;;;;5118326;28;20305;-65
2021/09/30 12:26:35;;;;;;;2.70;1.10;;;;;;;;;;5100321;28;20210;-65
2021/09/30 12:29:03;;;;;;;1.60;0.77;;;;;;;;;;5093466;28;20230;-65
2021/09/30 12:31:31;;;;;;;2.20;1.07;;;;;;;;;;5092953;28;20205;-65
2021/09/30 12:33:59;;;;;;;3.70;0.90;;;;;;;;;;5099613;28;20229;-65
2021/09/30 12:36:27;;;;;;;2.00;0.77;;;;;;;;;;5099703;28;20239;-65
2021/09/30 12:38:57;;;;;;;2.07;1.00;;;;;;;;;;5099470;28;20663;-65
2021/09/30 12:41:26;;;;;;;1.57;1.10;;;;;;;;;;5099688;28;20285;-65
2021/09/30 12:43:54;;;;;;;2.50;1.30;;;;;;;;;;5099498;28;20283;-65
2021/09/30 12:46:22;;;;;;;2.03;0.87;;;;;;;;;;5099397;28;20241;-62
2021/09/30 12:48:51;;;;;;;1.30;0.80;;;;;;;;;;5098799;28;20292;-65
2021/09/30 12:51:23;;;;;;;5.27;1.00;;;;;;;;;;5099405;28;20232;-62
2021/09/30 12:53:53;;;;;;;0.87;0.53;;;;;;;;;;5099150;28;20225;-65
2021/09/30 12:56:23;;;;;;;1.10;0.90;;;;;;;;;;5098782;28;20567;-65
2021/09/30 12:58:52;;;;;;;0.63;0.63;;;;;;;;;;5099261;28;20215;-64
2021/09/30 13:01:25;;;;;;;3.50;0.93;;;;;;;;;;5098985;28;20210;-64
2021/09/30 13:04:10;;;;;;;0.97;0.60;;;;;;;;;;5098996;28;20257;-64
2021/09/30 13:06:39;;;;;;;1.37;0.80;;;;;;;;;;5099257;28;20202;-64
2021/09/30 13:09:19;;;;;;;1.17;0.70;;;;;;;;;;5099372;28;20211;-64
2021/09/30 13:11:51;;;;;;;3.37;0.97;;;;;;;;;;5098865;28;20671;-64
2021/09/30 13:14:21;;;;;;;1.40;0.93;;;;;;;;;;5097597;28;20225;-65
2021/09/30 13:16:50;;;;;;;2.93;0.83;;;;;;;;;;5098360;28;20550;-64
2021/09/30 13:19:18;;;;;;;1.43;0.60;;;;;;;;;;5098211;28;20213;-64
2021/09/30 13:21:57;;;;;;;0.77;0.40;;;;;;;;;;5098860;28;20209;-63
2021/09/30 13:24:25;;;;;;;0.80;0.67;;;;;;;;;;5098143;28;20609;-65
2021/09/30 13:26:54;;;;;;;1.57;1.00;;;;;;;;;;5098265;28;20207;-65
2021/09/30 13:29:41;;;;;;;1.93;0.70;;;;;;;;;;5093173;28;20269;-65
2021/09/30 13:32:09;;;;;;;1.23;0.67;;;;;;;;;;5098398;28;20209;-65
2021/09/30 13:34:37;;;;;;;1.57;1.00;;;;;;;;;;5097646;28;20233;-65
2021/09/30 13:37:05;;;;;;;3.10;0.50;;;;;;;;;;5098084;28;20289;-65
2021/09/30 13:39:33;;;;;;;5.00;0.63;;;;;;;;;;5098615;28;20198;-65
2021/09/30 13:42:03;;;;;;;6.70;0.73;;;;;;;;;;5099113;28;20206;-65
2021/09/30 13:44:31;;;;;;;2.87;0.63;;;;;;;;;;5098804;28;20229;-65
2021/09/30 13:46:59;;;;;;;0.60;0.60;;;;;;;;;;5098429;28;20209;-65
2021/09/30 13:49:27;;;;;;;1.00;0.60;;;;;;;;;;5098219;28;20663;-65
2021/09/30 13:51:55;;;;;;;2.03;0.80;;;;;;;;;;5098044;28;20231;-65
2021/09/30 13:54:23;;;;;;;0.63;0.60;;;;;;;;;;5098103;28;20229;-65
2021/09/30 13:56:51;;;;;;;1.70;0.60;;;;;;;;;;5098319;28;20300;-65
2021/09/30 13:59:20;;;;;;;2.27;0.90;;;;;;;;;;5098283;28;20209;-65
2021/09/30 14:02:08;;;;;;;2.40;0.70;;;;;;;;;;5098132;28;20209;-65
2021/09/30 14:04:37;;;;;;;1.87;0.53;;;;;;;;;;5097990;28;20257;-65
2021/09/30 14:07:05;;;;;;;2.60;0.93;;;;;;;;;;5098038;28;20573;-65
2021/09/30 14:09:33;;;;;;;1.60;0.90;;;;;;;;;;5098397;28;20310;-65
2021/09/30 14:12:02;;;;;;;1.50;0.70;;;;;;;;;;5098139;28;20201;-65
2021/09/30 14:14:31;;;;;;;2.70;0.90;;;;;;;;;;5098018;28;20293;-65
2021/09/30 14:17:00;;;;;;;1.60;0.70;;;;;;;;;;5098380;28;20209;-65
2021/09/30 14:19:28;;;;;;;1.17;0.80;;;;;;;;;;5098032;28;20205;-65
2021/09/30 14:21:58;;;;;;;1.27;0.70;;;;;;;;;;5098148;28;20215;-65
2021/09/30 14:24:30;;;;;;;1.00;0.63;;;;;;;;;;5097727;28;20282;-65
2021/09/30 14:26:58;;;;;;;1.27;0.67;;;;;;;;;;5098341;28;20215;-65
2021/09/30 14:29:26;;;;;;;1.30;0.60;;;;;;;;;;5097337;28;20243;-65
2021/09/30 14:31:55;;;;;;;3.53;0.60;;;;;;;;;;5097759;28;20215;-65
2021/09/30 14:34:23;;;;;;;2.20;0.80;;;;;;;;;;5093627;28;20257;-65
2021/09/30 14:36:51;;;;;;;2.13;1.10;;;;;;;;;;5095698;28;20216;-65
2021/09/30 14:39:19;;;;;;;3.43;1.10;;;;;;;;;;5097599;28;20202;-65
2021/09/30 14:41:47;;;;;;;2.67;0.83;;;;;;;;;;5097440;28;20202;-65
2021/09/30 14:44:15;;;;;;;2.57;0.87;;;;;;;;;;5097242;28;20226;-65
2021/09/30 14:46:43;;;;;;;2.50;1.00;;;;;;;;;;5097463;28;20276;-65
2021/09/30 14:49:13;;;;;;;1.17;0.90;;;;;;;;;;5096914;28;20209;-65
2021/09/30 14:51:40;;;;;;;2.17;0.83;;;;;;;;;;5095282;28;20200;-65
2021/09/30 14:54:08;;;;;;;3.63;1.00;;;;;;;;;;5105003;28;20224;-65
2021/09/30 14:56:36;;;;;;;2.13;0.70;;;;;;;;;;5105058;28;20307;-65
2021/09/30 14:59:04;;;;;;;1.10;0.50;;;;;;;;;;5105785;28;20324;-65
2021/09/30 15:01:33;;;;;;;0.93;0.60;;;;;;;;;;5103263;28;20208;-65
2021/09/30 15:04:01;;;;;;;1.47;0.90;;;;;;;;;;5102016;28;20243;-65
2021/09/30 15:06:34;;;;;;;1.30;0.80;;;;;;;;;;5096895;28;20220;-65
2021/09/30 15:09:02;;;;;;;1.80;0.90;;;;;;;;;;5096573;28;20569;-65
2021/09/30 15:11:30;;;;;;;1.93;1.20;;;;;;;;;;5107225;28;20197;-65
2021/09/30 15:13:58;;;;;;;1.33;0.70;;;;;;;;;;5117408;28;20225;-65
2021/09/30 15:16:28;;;;;;;2.73;1.20;;;;;;;;;;5117775;28;20239;-63
2021/09/30 15:19:03;;;;;;;3.10;0.93;;;;;;;;;;5116749;28;20201;-63
2021/09/30 15:21:31;;;;;;;1.80;0.47;;;;;;;;;;5117641;28;20211;-63
2021/09/30 15:24:02;;;;;;;2.43;0.80;;;;;;;;;;5117407;28;20231;-63
2021/09/30 15:26:31;;;;;;;1.90;0.90;;;;;;;;;;5097718;28;20208;-65
2021/09/30 15:28:59;;;;;;;2.77;0.70;;;;;;;;;;5096989;28;20241;-64
2021/09/30 15:31:28;;;;;;;0.70;0.70;;;;;;;;;;5096898;28;20239;-65
2021/09/30 15:33:58;;;;;;;0.93;0.60;;;;;;;;;;5097162;28;20230;-65
2021/09/30 15:36:27;;;;;;;1.93;0.70;;;;;;;;;;5098159;28;20319;-63
2021/09/30 15:38:59;;;;;;;0.80;0.73;;;;;;;;;;5100834;28;20206;-65
2021/09/30 15:41:30;;;;;;;1.60;0.80;;;;;;;;;;5101001;28;20262;-64
2021/09/30 15:43:58;;;;;;;1.00;0.70;;;;;;;;;;5101057;28;20221;-65
2021/09/30 15:46:26;;;;;;;1.67;1.00;;;;;;;;;;5101043;28;20280;-65
2021/09/30 15:48:54;;;;;;;1.23;1.10;;;;;;;;;;5099555;28;20233;-65
2021/09/30 15:51:22;;;;;;;2.80;1.23;;;;;;;;;;5099676;28;20523;-65
2021/09/30 15:53:50;;;;;;;2.67;1.43;;;;;;;;;;5095981;28;20224;-65
2021/09/30 15:56:18;;;;;;;2.67;0.80;;;;;;;;;;5095571;28;20217;-65
2021/09/30 15:58:48;;;;;;;0.93;0.73;;;;;;;;;;5099906;28;20339;-65
2021/09/30 16:01:16;;;;;;;1.37;0.80;;;;;;;;;;5099394;28;20204;-65
2021/09/30 16:03:45;;;;;;;1.57;0.77;;;;;;;;;;5100893;28;20542;-65
2021/09/30 16:06:13;;;;;;;1.70;0.77;;;;;;;;;;5101823;28;20669;-65
2021/09/30 16:08:42;;;;;;;1.50;1.20;;;;;;;;;;5099398;28;20208;-65
2021/09/30 16:11:13;;;;;;;2.93;0.80;;;;;;;;;;5100277;28;20637;-65
2021/09/30 16:13:42;;;;;;;0.87;0.80;;;;;;;;;;5099295;28;20675;-65
2021/09/30 16:16:11;;;;;;;1.60;0.97;;;;;;;;;;5098914;28;20221;-64
2021/09/30 16:18:39;;;;;;;1.33;1.00;;;;;;;;;;5100861;28;20202;-63
2021/09/30 16:21:11;;;;;;;4.20;1.30;;;;;;;;;;5099112;28;20205;-65
2021/09/30 16:23:39;;;;;;;1.83;1.40;;;;;;;;;;5097199;28;20194;-68
2021/09/30 16:26:08;;;;;;;1.33;0.97;;;;;;;;;;5100593;28;20189;-69
2021/09/30 16:28:37;;;;;;;2.40;0.90;;;;;;;;;;5096700;28;20332;-67
2021/09/30 16:31:05;;;;;;;1.27;0.90;;;;;;;;;;5089097;28;20255;-65
2021/09/30 16:33:36;;;;;;;2.07;1.10;;;;;;;;;;5099401;28;20212;-67
2021/09/30 16:36:04;;;;;;;1.57;1.40;;;;;;;;;;5099768;28;20221;-68
2021/09/30 16:38:32;;;;;;;4.40;2.10;;;;;;;;;;5099390;28;20212;-67
2021/09/30 16:41:00;;;;;;;2.83;1.20;;;;;;;;;;5099174;28;20210;-67
2021/09/30 16:43:28;;;;;;;3.13;1.00;;;;;;;;;;5099063;28;20201;-65
2021/09/30 16:45:56;;;;;;;3.00;1.00;;;;;;;;;;5099356;28;20285;-66
2021/09/30 16:48:24;;;;;;;1.77;0.90;;;;;;;;;;5098736;28;20198;-66
2021/09/30 16:50:54;;;;;;;2.27;0.93;;;;;;;;;;5099496;28;20209;-66
2021/09/30 16:53:23;;;;;;;0.80;0.80;;;;;;;;;;5103733;28;20197;-66
2021/09/30 16:55:51;;;;;;;3.27;1.00;;;;;;;;;;5120063;28;20228;-66
2021/09/30 16:58:19;;;;;;;0.80;0.80;;;;;;;;;;5097815;28;20635;-64
2021/09/30 17:00:47;;;;;;;1.20;1.10;;;;;;;;;;5089477;28;20198;-65
2021/09/30 17:03:15;;;;;;;2.13;1.13;;;;;;;;;;5094527;28;20233;-65
2021/09/30 17:05:43;;;;;;;1.57;0.87;;;;;;;;;;5092367;28;20310;-65
2021/09/30 17:08:13;;;;;;;3.17;1.20;;;;;;;;;;5091122;28;20289;-65
2021/09/30 17:10:41;;;;;;;2.83;1.13;;;;;;;;;;5090036;28;20211;-65
2021/09/30 17:13:09;;;;;;;2.13;0.77;;;;;;;;;;5089801;28;20207;-64
2021/09/30 17:15:38;;;;;;;1.10;0.77;;;;;;;;;;5089600;28;20213;-65
2021/09/30 17:18:08;;;;;;;3.30;1.23;;;;;;;;;;5101411;28;20284;-65
2021/09/30 17:20:37;;;;;;;2.47;1.30;;;;;;;;;;5098786;28;20205;-65
2021/09/30 17:23:05;;;;;;;1.90;1.30;;;;;;;;;;5098355;28;20210;-65
2021/09/30 17:25:37;;;;;;;3.37;1.90;;;;;;;;;;5098057;28;20221;-65
2021/09/30 17:28:05;;;;;;;2.93;2.10;;;;;;;;;;5098139;28;20708;-65
2021/09/30 17:30:34;;;;;;;4.70;1.30;;;;;;;;;;5098523;28;20581;-65